createdAt,value
2023-05-07T00:00:29.221Z,102170.50
2023-05-07T00:02:56.010Z,102174.22
2023-05-07T00:05:22.747Z,102181.47
2023-05-07T00:07:50.418Z,102171.69
2023-05-07T00:10:17.080Z,102179.44
2023-05-07T00:12:44.000Z,102169.66
2023-05-07T00:15:11.798Z,102183.84
2023-05-07T00:17:39.047Z,102181.97
2023-05-07T00:20:06.481Z,102177.78
2023-05-07T00:22:33.719Z,102179.19
2023-05-07T00:25:00.420Z,102164.94
2023-05-07T00:27:27.077Z,102165.44
2023-05-07T00:29:53.694Z,102180.00
2023-05-07T00:32:20.612Z,102173.56
2023-05-07T00:34:47.277Z,102132.97
2023-05-07T00:37:13.991Z,102159.19
2023-05-07T00:39:40.730Z,102175.09
2023-05-07T00:42:07.384Z,102170.72
2023-05-07T00:44:34.074Z,102159.75
2023-05-07T00:47:04.314Z,102167.00
2023-05-07T00:49:39.585Z,102163.31
2023-05-07T00:52:08.954Z,102168.00
2023-05-07T00:54:36.227Z,102162.25
2023-05-07T00:57:04.774Z,102167.16
2023-05-07T00:59:33.648Z,102159.25
2023-05-07T01:02:00.581Z,102168.84
2023-05-07T01:04:27.826Z,102167.72
2023-05-07T01:07:00.587Z,102171.41
2023-05-07T01:09:28.986Z,102169.69
2023-05-07T01:11:57.670Z,102170.72
2023-05-07T01:14:24.904Z,102163.31
2023-05-07T01:16:54.642Z,102178.50
2023-05-07T01:19:21.694Z,102164.47
2023-05-07T01:21:49.938Z,102169.94
2023-05-07T01:24:17.221Z,102164.53
2023-05-07T01:26:45.608Z,102174.63
2023-05-07T01:29:12.529Z,102171.91
2023-05-07T01:31:42.653Z,102170.22
2023-05-07T01:34:12.263Z,102174.78
2023-05-07T01:36:41.008Z,102169.38
2023-05-07T01:39:08.955Z,102176.47
2023-05-07T01:41:36.190Z,102174.78
2023-05-07T01:44:05.206Z,102165.69
2023-05-07T01:46:32.559Z,102173.59
2023-05-07T01:48:59.633Z,102170.06
2023-05-07T01:51:27.227Z,102164.66
2023-05-07T01:53:54.450Z,102168.22
2023-05-07T01:56:21.250Z,102162.69
2023-05-07T01:58:48.006Z,102166.22
2023-05-07T02:01:15.455Z,102163.66
2023-05-07T02:03:42.248Z,102170.06
2023-05-07T02:06:09.626Z,102173.59
2023-05-07T02:08:37.583Z,102166.53
2023-05-07T02:11:04.902Z,102166.22
2023-05-07T02:13:33.474Z,102171.06
2023-05-07T02:16:00.417Z,102172.75
2023-05-07T02:18:27.192Z,102167.53
2023-05-07T02:20:53.762Z,102173.09
2023-05-07T02:23:20.390Z,102169.03
2023-05-07T02:25:48.056Z,102173.25
2023-05-07T02:28:14.688Z,102180.00
2023-05-07T02:30:41.448Z,102177.66
2023-05-07T02:33:09.573Z,102180.84
2023-05-07T02:35:36.342Z,102186.44
2023-05-07T02:38:03.267Z,102183.91
2023-05-07T02:40:29.928Z,102184.91
2023-05-07T02:42:56.491Z,102182.22
2023-05-07T02:45:23.037Z,102183.91
2023-05-07T02:47:49.669Z,102184.94
2023-05-07T02:50:16.455Z,102173.75
2023-05-07T02:52:43.031Z,102182.22
2023-05-07T02:55:09.979Z,102190.44
2023-05-07T02:57:36.622Z,102186.91
2023-05-07T03:00:12.910Z,102197.69
2023-05-07T03:02:39.545Z,102194.00
2023-05-07T03:05:06.768Z,102199.38
2023-05-07T03:07:36.880Z,102194.69
2023-05-07T03:10:04.907Z,102193.50
2023-05-07T03:12:32.185Z,102194.69
2023-05-07T03:14:58.811Z,102196.00
2023-05-07T03:17:25.510Z,102191.63
2023-05-07T03:19:52.179Z,102194.50
2023-05-07T03:22:18.792Z,102195.63
2023-05-07T03:24:45.395Z,102196.66
2023-05-07T03:27:12.952Z,102189.56
2023-05-07T03:29:40.585Z,102199.53
2023-05-07T03:32:10.820Z,102207.63
2023-05-07T03:34:37.544Z,102185.44
2023-05-07T03:37:04.158Z,102190.84
2023-05-07T03:39:31.460Z,102205.06
2023-05-07T03:41:58.057Z,102202.53
2023-05-07T03:44:24.750Z,102207.06
2023-05-07T03:46:52.445Z,102211.31
2023-05-07T03:49:19.052Z,102207.06
2023-05-07T03:51:45.698Z,102211.09
2023-05-07T03:54:12.215Z,102209.94
2023-05-07T03:56:38.940Z,102214.16
2023-05-07T03:59:05.625Z,102213.16
2023-05-07T04:01:32.303Z,102221.25
2023-05-07T04:03:59.141Z,102211.84
2023-05-07T04:06:25.800Z,102214.69
2023-05-07T04:08:52.403Z,102214.88
2023-05-07T04:11:19.014Z,102222.63
2023-05-07T04:13:45.689Z,102206.13
2023-05-07T04:16:13.404Z,102207.25
2023-05-07T04:18:40.546Z,102213.84
2023-05-07T04:21:07.184Z,102208.28
2023-05-07T04:23:33.820Z,102211.53
2023-05-07T04:26:00.522Z,102220.31
2023-05-07T04:28:27.153Z,102219.28
2023-05-07T04:30:53.766Z,102221.69
2023-05-07T04:33:20.956Z,102218.66
2023-05-07T04:35:47.585Z,102198.41
2023-05-07T04:38:14.199Z,102213.81
2023-05-07T04:40:41.095Z,102218.06
2023-05-07T04:43:08.498Z,102222.13
2023-05-07T04:45:35.279Z,102211.66
2023-05-07T04:48:02.147Z,102221.34
2023-05-07T04:50:28.864Z,102192.38
2023-05-07T04:52:55.670Z,102223.91
2023-05-07T04:55:23.390Z,102221.03
2023-05-07T04:57:49.903Z,102217.13
2023-05-07T05:00:17.678Z,102223.72
2023-05-07T05:02:44.511Z,102228.28
2023-05-07T05:05:11.474Z,102233.69
2023-05-07T05:07:38.385Z,102230.69
2023-05-07T05:10:06.811Z,102235.81
2023-05-07T05:12:33.391Z,102238.03
2023-05-07T05:15:00.054Z,102232.56
2023-05-07T05:17:27.747Z,102219.13
2023-05-07T05:19:54.485Z,102226.44
2023-05-07T05:22:22.329Z,102228.56
2023-05-07T05:24:48.921Z,102235.91
2023-05-07T05:27:15.557Z,102239.91
2023-05-07T05:29:44.841Z,102240.00
2023-05-07T05:32:11.800Z,102246.25
2023-05-07T05:34:38.409Z,102249.56
2023-05-07T05:37:07.549Z,102233.69
2023-05-07T05:39:34.243Z,102238.75
2023-05-07T05:42:00.912Z,102255.34
2023-05-07T05:44:27.502Z,102246.56
2023-05-07T05:46:56.584Z,102251.38
2023-05-07T05:49:23.187Z,102253.59
2023-05-07T05:51:49.892Z,102261.31
2023-05-07T05:54:16.516Z,102255.28
2023-05-07T05:56:43.360Z,102262.34
2023-05-07T05:59:10.014Z,102263.00
2023-05-07T06:01:36.893Z,102269.75
2023-05-07T06:04:03.687Z,102269.44
2023-05-07T06:06:30.303Z,102273.84
2023-05-07T06:08:56.934Z,102270.31
2023-05-07T06:11:23.631Z,102269.47
2023-05-07T06:13:50.298Z,102261.66
2023-05-07T06:16:17.024Z,102266.41
2023-05-07T06:18:43.608Z,102274.84
2023-05-07T06:21:11.220Z,102252.41
2023-05-07T06:23:38.018Z,102285.75
2023-05-07T06:26:04.911Z,102282.84
2023-05-07T06:28:36.718Z,102275.84
2023-05-07T06:31:14.105Z,102276.91
2023-05-07T06:33:41.237Z,102275.25
2023-05-07T06:36:08.076Z,102271.41
2023-05-07T06:38:34.680Z,102275.59
2023-05-07T06:41:01.300Z,102275.31
2023-05-07T06:43:27.955Z,102251.31
2023-05-07T06:45:54.616Z,102271.97
2023-05-07T06:48:21.429Z,102255.00
2023-05-07T06:50:48.089Z,102270.50
2023-05-07T06:53:14.727Z,102275.31
2023-05-07T06:55:42.659Z,102276.84
2023-05-07T06:58:09.265Z,102279.38
2023-05-07T07:00:36.924Z,102277.19
2023-05-07T07:03:03.620Z,102281.06
2023-05-07T07:05:30.200Z,102292.84
2023-05-07T07:07:56.805Z,102289.19
2023-05-07T07:10:23.938Z,102276.25
2023-05-07T07:12:51.206Z,102281.81
2023-05-07T07:15:17.824Z,102286.28
2023-05-07T07:17:44.370Z,102283.94
2023-05-07T07:20:12.209Z,102290.59
2023-05-07T07:22:39.128Z,102282.59
2023-05-07T07:25:06.254Z,102280.13
2023-05-07T07:27:32.869Z,102279.44
2023-05-07T07:29:59.478Z,102284.75
2023-05-07T07:32:26.820Z,102278.78
2023-05-07T07:34:54.453Z,102287.97
2023-05-07T07:37:21.231Z,102286.50
2023-05-07T07:39:47.777Z,102278.22
2023-05-07T07:42:14.320Z,102259.78
2023-05-07T07:44:41.173Z,102281.81
2023-05-07T07:47:10.381Z,102280.75
2023-05-07T07:49:39.039Z,102279.03
2023-05-07T07:52:05.647Z,102281.72
2023-05-07T07:54:33.541Z,102279.63
2023-05-07T07:57:00.717Z,102278.38
2023-05-07T07:59:27.393Z,102271.81
2023-05-07T08:01:56.719Z,102276.72
2023-05-07T08:04:23.636Z,102267.22
2023-05-07T08:06:50.204Z,102277.53
2023-05-07T08:09:17.175Z,102283.03
2023-05-07T08:11:43.795Z,102269.41
2023-05-07T08:14:11.173Z,102264.53
2023-05-07T08:16:37.814Z,102268.16
2023-05-07T08:19:04.453Z,102266.69
2023-05-07T08:21:33.732Z,102262.50
2023-05-07T08:24:01.115Z,102262.31
2023-05-07T08:26:27.708Z,102265.63
2023-05-07T08:28:54.426Z,102266.91
2023-05-07T08:31:21.195Z,102270.91
2023-05-07T08:33:48.141Z,102265.47
2023-05-07T08:36:14.749Z,102269.44
2023-05-07T08:38:43.822Z,102266.50
2023-05-07T08:41:12.485Z,102273.38
2023-05-07T08:43:41.348Z,102278.38
2023-05-07T08:46:10.632Z,102261.00
2023-05-07T08:48:37.906Z,102273.63
2023-05-07T08:51:04.703Z,102267.31
2023-05-07T08:53:31.707Z,102268.19
2023-05-07T08:55:58.529Z,102279.25
2023-05-07T08:58:25.132Z,102272.97
2023-05-07T09:00:54.961Z,102269.81
2023-05-07T09:03:21.737Z,102274.91
2023-05-07T09:05:48.361Z,102268.81
2023-05-07T09:08:17.097Z,102267.09
2023-05-07T09:10:45.462Z,102272.13
2023-05-07T09:13:14.317Z,102258.47
2023-05-07T09:15:41.023Z,102257.25
2023-05-07T09:18:08.048Z,102276.78
2023-05-07T09:20:34.795Z,102276.34
2023-05-07T09:23:01.429Z,102278.13
2023-05-07T09:25:35.903Z,102260.00
2023-05-07T09:28:04.221Z,102265.31
2023-05-07T09:30:32.672Z,102252.94
2023-05-07T09:33:00.708Z,102259.84
2023-05-07T09:35:30.283Z,102259.47
2023-05-07T09:38:03.931Z,102267.25
2023-05-07T09:40:32.047Z,102262.78
2023-05-07T09:43:10.102Z,102264.97
2023-05-07T09:45:38.120Z,102262.66
2023-05-07T09:48:06.166Z,102259.63
2023-05-07T09:50:45.505Z,102270.16
2023-05-07T09:53:14.446Z,102254.28
2023-05-07T09:55:41.395Z,102268.97
2023-05-07T09:58:08.901Z,102263.69
2023-05-07T10:00:37.080Z,102265.56
2023-05-07T10:03:04.114Z,102277.25
2023-05-07T10:05:31.164Z,102261.94
2023-05-07T10:07:58.783Z,102275.22
2023-05-07T10:10:26.216Z,102260.56
2023-05-07T10:12:53.837Z,102270.25
2023-05-07T10:15:20.982Z,102269.41
2023-05-07T10:17:49.391Z,102268.09
2023-05-07T10:20:16.254Z,102268.34
2023-05-07T10:22:45.810Z,102263.75
2023-05-07T10:25:19.920Z,102260.13
2023-05-07T10:27:48.745Z,102268.53
2023-05-07T10:30:16.340Z,102245.13
2023-05-07T10:33:07.269Z,102259.84
2023-05-07T10:35:42.148Z,102259.34
2023-05-07T10:38:09.439Z,102255.47
2023-05-07T10:40:36.993Z,102269.25
2023-05-07T10:43:10.624Z,102265.34
2023-05-07T10:45:37.753Z,102277.31
2023-05-07T10:48:28.922Z,102272.28
2023-05-07T10:51:19.967Z,102272.72
2023-05-07T10:53:46.636Z,102267.47
2023-05-07T10:56:19.734Z,102277.03
2023-05-07T10:58:46.601Z,102292.34
2023-05-07T11:01:14.426Z,102278.44
2023-05-07T11:04:16.629Z,102283.34
2023-05-07T11:06:43.404Z,102267.66
2023-05-07T11:09:09.984Z,102270.50
2023-05-07T11:11:48.486Z,102267.69
2023-05-07T11:14:35.999Z,102277.84
2023-05-07T11:17:04.943Z,102278.63
2023-05-07T11:19:54.277Z,102269.53
2023-05-07T11:22:38.111Z,102267.66
2023-05-07T11:25:07.399Z,102267.44
2023-05-07T11:27:34.267Z,102262.47
2023-05-07T11:30:02.220Z,102262.78
2023-05-07T11:32:33.074Z,102274.84
2023-05-07T11:35:01.282Z,102265.78
2023-05-07T11:37:30.773Z,102256.75
2023-05-07T11:40:06.624Z,102266.13
2023-05-07T11:42:35.549Z,102260.44
2023-05-07T11:45:02.554Z,102264.41
2023-05-07T11:47:32.327Z,102263.91
2023-05-07T11:50:04.604Z,102261.16
2023-05-07T11:52:31.420Z,102248.97
2023-05-07T11:54:59.568Z,102263.09
2023-05-07T11:57:27.697Z,102251.81
2023-05-07T11:59:58.448Z,102256.69
2023-05-07T12:02:26.305Z,102253.88
2023-05-07T12:04:53.834Z,102258.19
2023-05-07T12:07:20.824Z,102263.56
2023-05-07T12:09:48.546Z,102267.50
2023-05-07T12:12:18.628Z,102262.22
2023-05-07T12:14:46.947Z,102259.28
2023-05-07T12:17:15.460Z,102249.31
2023-05-07T12:19:44.628Z,102261.63
2023-05-07T12:22:15.281Z,102262.16
2023-05-07T12:24:44.958Z,102270.09
2023-05-07T12:27:12.063Z,102264.91
2023-05-07T12:29:41.040Z,102245.34
2023-05-07T12:32:08.309Z,102261.84
2023-05-07T12:34:35.971Z,102254.13
2023-05-07T12:37:04.776Z,102260.00
2023-05-07T12:39:31.759Z,102256.56
2023-05-07T12:42:00.098Z,102235.72
2023-05-07T12:44:31.870Z,102240.97
2023-05-07T12:46:59.070Z,102247.03
2023-05-07T12:49:26.449Z,102252.81
2023-05-07T12:51:54.210Z,102259.78
2023-05-07T12:54:35.054Z,102258.88
2023-05-07T12:57:07.990Z,102250.59
2023-05-07T12:59:39.479Z,102251.84
2023-05-07T13:02:10.089Z,102253.53
2023-05-07T13:04:37.237Z,102244.59
2023-05-07T13:07:04.208Z,102256.69
2023-05-07T13:09:32.292Z,102256.22
2023-05-07T13:12:04.861Z,102241.69
2023-05-07T13:14:34.056Z,102246.06
2023-05-07T13:17:00.888Z,102240.69
2023-05-07T13:19:29.701Z,102243.59
2023-05-07T13:21:58.123Z,102241.16
2023-05-07T13:24:24.776Z,102236.56
2023-05-07T13:26:52.476Z,102235.03
2023-05-07T13:29:19.209Z,102246.97
2023-05-07T13:31:47.732Z,102235.34
2023-05-07T13:34:15.172Z,102235.06
2023-05-07T13:36:43.948Z,102213.34
2023-05-07T13:39:10.894Z,102243.31
2023-05-07T13:41:37.541Z,102252.50
2023-05-07T13:44:05.511Z,102239.25
2023-05-07T13:46:32.172Z,102250.16
2023-05-07T13:48:58.839Z,102238.56
2023-05-07T13:51:25.678Z,102225.69
2023-05-07T13:53:53.577Z,102233.22
2023-05-07T13:56:21.215Z,102230.09
2023-05-07T13:58:58.870Z,102238.03
2023-05-07T14:01:26.805Z,102234.28
2023-05-07T14:03:53.684Z,102227.66
2023-05-07T14:06:20.738Z,102241.81
2023-05-07T14:08:47.456Z,102232.19
2023-05-07T14:11:14.234Z,102219.69
2023-05-07T14:13:41.119Z,102229.91
2023-05-07T14:16:07.877Z,102226.94
2023-05-07T14:18:35.472Z,102206.41
2023-05-07T14:21:03.730Z,102227.81
2023-05-07T14:23:30.454Z,102220.41
2023-05-07T14:25:59.126Z,102223.94
2023-05-07T14:28:25.712Z,102220.91
2023-05-07T14:30:52.517Z,102219.56
2023-05-07T14:33:19.107Z,102210.78
2023-05-07T14:35:49.715Z,102200.88
2023-05-07T14:38:16.705Z,102230.00
2023-05-07T14:40:43.599Z,102221.03
2023-05-07T14:43:10.126Z,102223.78
2023-05-07T14:45:36.738Z,102222.81
2023-05-07T14:48:03.894Z,102224.50
2023-05-07T14:50:30.972Z,102220.97
2023-05-07T14:53:01.743Z,102223.50
2023-05-07T14:55:33.497Z,102232.09
2023-05-07T14:58:02.096Z,102230.00
2023-05-07T15:00:29.421Z,102227.88
2023-05-07T15:03:06.757Z,102226.94
2023-05-07T15:05:33.776Z,102236.56
2023-05-07T15:08:01.440Z,102238.22
2023-05-07T15:10:28.198Z,102232.44
2023-05-07T15:12:54.803Z,102229.34
2023-05-07T15:15:21.642Z,102233.16
2023-05-07T15:17:48.450Z,102243.16
2023-05-07T15:20:18.681Z,102254.28
2023-05-07T15:22:45.609Z,102243.50
2023-05-07T15:25:12.881Z,102234.09
2023-05-07T15:27:39.831Z,102241.06
2023-05-07T15:30:07.123Z,102229.31
2023-05-07T15:32:33.933Z,102237.38
2023-05-07T15:35:00.555Z,102228.97
2023-05-07T15:37:27.260Z,102231.84
2023-05-07T15:39:54.864Z,102224.22
2023-05-07T15:42:21.624Z,102238.84
2023-05-07T15:44:49.246Z,102238.41
2023-05-07T15:47:16.355Z,102242.31
2023-05-07T15:49:43.465Z,102241.75
2023-05-07T15:52:14.787Z,102239.50
2023-05-07T15:54:41.387Z,102239.66
2023-05-07T15:57:09.910Z,102232.09
2023-05-07T15:59:36.462Z,102236.19
2023-05-07T16:02:05.662Z,102203.03
2023-05-07T16:04:33.328Z,102242.25
2023-05-07T16:06:59.945Z,102239.69
2023-05-07T16:09:28.946Z,102240.63
2023-05-07T16:11:56.309Z,102243.44
2023-05-07T16:14:24.361Z,102233.38
2023-05-07T16:16:50.970Z,102229.63
2023-05-07T16:19:17.931Z,102236.03
2023-05-07T16:21:44.597Z,102238.09
2023-05-07T16:24:11.235Z,102235.94
2023-05-07T16:26:37.939Z,102226.88
2023-05-07T16:29:06.919Z,102236.72
2023-05-07T16:31:33.892Z,102209.03
2023-05-07T16:34:01.171Z,102240.13
2023-05-07T16:36:29.220Z,102230.84
2023-05-07T16:38:56.806Z,102225.41
2023-05-07T16:41:23.729Z,102233.97
2023-05-07T16:43:50.549Z,102233.94
2023-05-07T16:46:17.346Z,102222.50
2023-05-07T16:48:45.277Z,102245.66
2023-05-07T16:51:12.171Z,102239.34
2023-05-07T16:53:40.947Z,102230.78
2023-05-07T16:56:07.844Z,102229.16
2023-05-07T16:58:34.751Z,102226.19
2023-05-07T17:01:02.627Z,102225.97
2023-05-07T17:03:32.251Z,102220.16
2023-05-07T17:05:59.025Z,102224.38
2023-05-07T17:08:26.087Z,102224.47
2023-05-07T17:10:52.739Z,102224.47
2023-05-07T17:13:20.548Z,102200.72
2023-05-07T17:15:47.781Z,102222.91
2023-05-07T17:18:14.924Z,102219.00
2023-05-07T17:20:42.186Z,102216.66
2023-05-07T17:23:08.953Z,102209.59
2023-05-07T17:25:37.130Z,102217.41
2023-05-07T17:28:03.937Z,102221.84
2023-05-07T17:30:30.730Z,102215.75
2023-05-07T17:33:06.294Z,102227.59
2023-05-07T17:35:39.949Z,102219.22
2023-05-07T17:38:07.653Z,102227.59
2023-05-07T17:40:35.358Z,102233.13
2023-05-07T17:43:02.033Z,102239.88
2023-05-07T17:45:28.837Z,102239.53
2023-05-07T17:47:55.563Z,102244.16
2023-05-07T17:50:23.480Z,102247.16
2023-05-07T17:52:50.276Z,102249.91
2023-05-07T17:55:17.023Z,102246.69
2023-05-07T17:57:54.045Z,102218.72
2023-05-07T18:00:21.410Z,102264.31
2023-05-07T18:02:48.012Z,102272.66
2023-05-07T18:05:14.680Z,102264.78
2023-05-07T18:07:41.303Z,102276.19
2023-05-07T18:10:08.326Z,102278.78
2023-05-07T18:12:35.803Z,102283.06
2023-05-07T18:15:05.471Z,102269.47
2023-05-07T18:17:32.181Z,102271.44
2023-05-07T18:19:58.813Z,102273.81
2023-05-07T18:22:25.395Z,102276.59
2023-05-07T18:24:52.402Z,102276.00
2023-05-07T18:27:18.945Z,102287.94
2023-05-07T18:29:46.569Z,102281.13
2023-05-07T18:32:13.964Z,102287.66
2023-05-07T18:34:41.344Z,102294.44
2023-05-07T18:37:08.093Z,102296.59
2023-05-07T18:39:35.682Z,102297.56
2023-05-07T18:42:05.115Z,102302.00
2023-05-07T18:44:33.330Z,102296.38
2023-05-07T18:47:00.080Z,102312.56
2023-05-07T18:49:26.857Z,102316.63
2023-05-07T18:51:53.438Z,102319.78
2023-05-07T18:54:20.306Z,102326.31
2023-05-07T18:56:47.001Z,102328.28
2023-05-07T18:59:13.603Z,102326.13
2023-05-07T19:01:40.428Z,102327.69
2023-05-07T19:04:08.068Z,102336.94
2023-05-07T19:06:35.164Z,102283.28
2023-05-07T19:09:01.912Z,102320.34
2023-05-07T19:11:28.531Z,102330.84
2023-05-07T19:13:55.162Z,102343.66
2023-05-07T19:16:21.955Z,102337.72
2023-05-07T19:18:49.681Z,102348.00
2023-05-07T19:21:16.347Z,102351.41
2023-05-07T19:23:43.082Z,102351.75
2023-05-07T19:26:10.522Z,102354.84
2023-05-07T19:28:38.458Z,102364.53
2023-05-07T19:31:05.793Z,102342.06
2023-05-07T19:33:32.633Z,102359.88
2023-05-07T19:36:01.021Z,102354.00
2023-05-07T19:38:28.362Z,102376.66
2023-05-07T19:40:55.463Z,102359.13
2023-05-07T19:43:22.058Z,102378.44
2023-05-07T19:45:52.432Z,102377.44
2023-05-07T19:48:20.911Z,102387.25
2023-05-07T19:50:48.283Z,102390.81
2023-05-07T19:53:15.128Z,102386.41
2023-05-07T19:55:41.936Z,102379.16
2023-05-07T19:58:08.629Z,102369.34
2023-05-07T20:00:35.587Z,102383.56
2023-05-07T20:03:02.402Z,102397.09
2023-05-07T20:05:28.995Z,102401.69
2023-05-07T20:07:55.953Z,102380.31
2023-05-07T20:10:22.831Z,102401.16
2023-05-07T20:12:49.551Z,102406.72
2023-05-07T20:15:16.420Z,102391.28
2023-05-07T20:17:44.583Z,102410.56
2023-05-07T20:20:12.558Z,102410.84
2023-05-07T20:22:39.479Z,102414.56
2023-05-07T20:25:07.750Z,102410.97
2023-05-07T20:27:35.229Z,102415.53
2023-05-07T20:30:01.931Z,102416.84
2023-05-07T20:32:28.635Z,102424.41
2023-05-07T20:34:55.776Z,102419.81
2023-05-07T20:37:22.474Z,102426.16
2023-05-07T20:39:49.120Z,102426.47
2023-05-07T20:42:17.389Z,102424.63
2023-05-07T20:44:43.927Z,102421.72
2023-05-07T20:47:10.569Z,102426.59
2023-05-07T20:49:38.199Z,102425.00
2023-05-07T20:52:05.473Z,102429.03
2023-05-07T20:54:32.082Z,102430.22
2023-05-07T20:57:00.214Z,102430.84
2023-05-07T20:59:28.874Z,102436.38
2023-05-07T21:01:56.794Z,102434.84
2023-05-07T21:04:23.334Z,102437.19
2023-05-07T21:06:49.971Z,102446.09
2023-05-07T21:09:16.592Z,102447.38
2023-05-07T21:11:43.194Z,102452.94
2023-05-07T21:14:09.836Z,102451.41
2023-05-07T21:16:36.704Z,102451.03
2023-05-07T21:19:03.905Z,102457.34
2023-05-07T21:21:31.690Z,102460.34
2023-05-07T21:23:58.545Z,102450.19
2023-05-07T21:26:25.299Z,102461.59
2023-05-07T21:28:52.149Z,102465.91
2023-05-07T21:31:19.690Z,102466.81
2023-05-07T21:33:46.543Z,102469.88
2023-05-07T21:36:13.210Z,102472.78
2023-05-07T21:38:40.405Z,102474.44
2023-05-07T21:41:07.175Z,102471.81
2023-05-07T21:43:33.833Z,102487.59
2023-05-07T21:46:00.700Z,102477.66
2023-05-07T21:48:27.389Z,102480.22
2023-05-07T21:51:07.972Z,102491.69
2023-05-07T21:53:35.298Z,102493.38
2023-05-07T21:56:05.160Z,102489.28
2023-05-07T21:58:32.276Z,102492.56
2023-05-07T22:01:00.232Z,102494.00
2023-05-07T22:03:27.148Z,102499.69
2023-05-07T22:05:53.710Z,102496.88
2023-05-07T22:08:20.440Z,102503.00
2023-05-07T22:10:48.164Z,102504.84
2023-05-07T22:13:14.999Z,102506.25
2023-05-07T22:15:49.557Z,102503.13
2023-05-07T22:18:23.220Z,102514.47
2023-05-07T22:20:51.772Z,102517.91
2023-05-07T22:23:18.410Z,102517.94
2023-05-07T22:25:45.028Z,102516.50
2023-05-07T22:28:11.638Z,102520.94
2023-05-07T22:30:38.448Z,102472.88
2023-05-07T22:33:05.120Z,102524.19
2023-05-07T22:35:31.817Z,102521.03
2023-05-07T22:37:58.570Z,102522.41
2023-05-07T22:40:25.606Z,102526.09
2023-05-07T22:42:52.606Z,102525.09
2023-05-07T22:45:19.212Z,102523.50
2023-05-07T22:47:45.816Z,102525.34
2023-05-07T22:50:13.067Z,102525.66
2023-05-07T22:52:39.987Z,102529.44
2023-05-07T22:55:07.181Z,102526.59
2023-05-07T22:57:33.720Z,102531.88
2023-05-07T23:00:00.377Z,102539.09
2023-05-07T23:02:29.169Z,102535.81
2023-05-07T23:04:59.319Z,102539.91
2023-05-07T23:07:26.187Z,102547.22
2023-05-07T23:09:52.814Z,102535.25
2023-05-07T23:12:19.773Z,102531.28
2023-05-07T23:14:46.421Z,102540.91
2023-05-07T23:17:14.134Z,102530.59
2023-05-07T23:19:42.091Z,102533.16
2023-05-07T23:22:10.198Z,102519.97
2023-05-07T23:24:36.960Z,102532.16
2023-05-07T23:27:07.298Z,102534.72
2023-05-07T23:29:34.750Z,102539.47
2023-05-07T23:32:02.433Z,102542.41
2023-05-07T23:34:30.136Z,102542.63
2023-05-07T23:36:56.725Z,102539.66
2023-05-07T23:39:23.392Z,102541.88
2023-05-07T23:41:49.955Z,102541.16
2023-05-07T23:44:16.713Z,102548.91
2023-05-07T23:46:44.506Z,102548.59
2023-05-07T23:49:11.435Z,102549.75
2023-05-07T23:51:38.126Z,102483.44
2023-05-07T23:54:05.101Z,102538.47
2023-05-07T23:56:31.919Z,102533.22
2023-05-07T23:58:58.657Z,102537.50
